Guntersville Observed Data For Previous 48 Hours

Caption
Day and Hour Reservoir Elevation (behind dam)* Tailwater Elevation (below dam)* Average Hourly Discharge*
6/20/2018 1 AM CDT 594.74 556.64 23,002
6/20/2018 2 AM CDT 594.74 556.64 22,978
6/20/2018 3 AM CDT 594.72 556.64 23,055
6/20/2018 4 AM CDT 594.72 556.67 23,208
6/20/2018 5 AM CDT 594.71 556.68 23,191
6/20/2018 6 AM CDT 594.69 556.66 23,140
6/20/2018 7 AM CDT 594.64 556.71 23,481
6/20/2018 8 AM CDT 594.67 556.47 22,651
6/20/2018 9 AM CDT 594.66 556.49 23,167
6/20/2018 10 AM CDT 594.65 556.64 23,759
6/20/2018 11 AM CDT 594.64 556.65 23,620
6/20/2018 12 PM CDT 594.60 556.66 23,540
6/20/2018 1 PM CDT 594.62 556.64 23,720
6/20/2018 2 PM CDT 594.59 556.66 23,552
6/20/2018 3 PM CDT 594.59 556.66 23,561
6/20/2018 4 PM CDT 594.57 556.70 23,569
6/20/2018 5 PM CDT 594.58 556.72 23,631
6/20/2018 6 PM CDT 594.61 556.71 23,608
6/20/2018 7 PM CDT 594.65 556.70 23,481
6/20/2018 8 PM CDT 594.67 556.71 23,565
6/20/2018 9 PM CDT 594.67 556.69 23,491
6/20/2018 10 PM CDT 594.67 556.68 23,558
6/20/2018 11 PM CDT 594.69 556.71 23,528
6/21/2018 12 AM CDT 594.67 556.70 23,483
6/21/2018 1 AM CDT 594.66 556.90 26,305
6/21/2018 2 AM CDT 594.68 556.89 26,429
6/21/2018 3 AM CDT 594.68 556.93 26,598
6/21/2018 4 AM CDT 594.68 556.97 26,406
6/21/2018 5 AM CDT 594.67 556.96 26,433
6/21/2018 6 AM CDT 594.64 556.96 26,425
6/21/2018 7 AM CDT 594.61 556.99 26,530
6/21/2018 8 AM CDT 594.61 556.96 26,792
6/21/2018 9 AM CDT 594.60 556.98 26,727
6/21/2018 10 AM CDT 594.64 556.96 26,659
6/21/2018 11 AM CDT 594.61 556.95 26,662
6/21/2018 12 PM CDT 594.57 556.96 26,948
6/21/2018 1 PM CDT 594.56 557.02 26,918
6/21/2018 2 PM CDT 594.44 556.96 26,967
6/21/2018 3 PM CDT 594.51 556.96 26,892
6/21/2018 4 PM CDT 594.46 557.00 26,981
6/21/2018 5 PM CDT 594.45 557.03 26,912
6/21/2018 6 PM CDT 594.48 557.03 26,590
6/21/2018 7 PM CDT 594.49 557.01 26,647
6/21/2018 8 PM CDT 594.51 557.01 26,712
6/21/2018 9 PM CDT 594.55 556.99 26,496
6/21/2018 10 PM CDT 594.59 556.95 26,392
6/21/2018 11 PM CDT 594.64 557.00 26,543
6/22/2018 12 AM CDT 594.50 557.10 26,741

Elevations are in feet above sea level. Discharges are in cubic feet per second and are reported at the end of the hour.